createdAt,value
2016-11-02T00:00:08.602Z,977.8
2016-11-02T00:01:17.302Z,977.88
2016-11-02T00:02:26.389Z,977.91
2016-11-02T00:03:35.084Z,977.86
2016-11-02T00:04:43.875Z,977.89
2016-11-02T00:05:52.569Z,977.93
2016-11-02T00:07:01.274Z,977.95
2016-11-02T00:08:09.970Z,977.93
2016-11-02T00:09:18.699Z,977.96
2016-11-02T00:10:27.449Z,977.91
2016-11-02T00:11:36.156Z,977.93
2016-11-02T00:12:44.849Z,978
2016-11-02T00:13:53.548Z,977.97
2016-11-02T00:15:02.245Z,977.86
2016-11-02T00:16:11.030Z,977.92
2016-11-02T00:17:19.726Z,978
2016-11-02T00:18:28.421Z,978.02
2016-11-02T00:19:37.118Z,978.06
2016-11-02T00:20:45.810Z,978.03
2016-11-02T00:21:54.556Z,978.02
2016-11-02T00:23:03.259Z,978.06
2016-11-02T00:24:11.952Z,978.03
2016-11-02T00:25:20.689Z,978.07
2016-11-02T00:26:29.379Z,978.13
2016-11-02T00:27:38.127Z,978.14
2016-11-02T00:28:46.817Z,978.18
2016-11-02T00:29:55.510Z,978.2
2016-11-02T00:31:04.207Z,978.16
2016-11-02T00:32:12.907Z,978.22
2016-11-02T00:33:21.703Z,978.21
2016-11-02T00:34:30.439Z,978.19
2016-11-02T00:35:39.179Z,978.18
2016-11-02T00:36:47.872Z,978.31
2016-11-02T00:37:56.562Z,978.21
2016-11-02T00:39:05.459Z,978.31
2016-11-02T00:40:14.159Z,978.19
2016-11-02T00:41:22.863Z,978.27
2016-11-02T00:42:31.565Z,978.24
2016-11-02T00:43:40.261Z,978.18
2016-11-02T00:44:48.955Z,978.19
2016-11-02T00:45:57.649Z,978.23
2016-11-02T00:47:06.344Z,978.26
2016-11-02T00:48:15.037Z,978.23
2016-11-02T00:49:23.739Z,978.26
2016-11-02T00:50:32.431Z,978.28
2016-11-02T00:51:41.159Z,978.29
2016-11-02T00:52:49.848Z,978.21
2016-11-02T00:53:58.542Z,978.26
2016-11-02T00:55:07.276Z,978.35
2016-11-02T00:56:15.968Z,978.4
2016-11-02T00:57:24.697Z,978.36
2016-11-02T00:58:33.395Z,978.38
2016-11-02T00:59:42.131Z,978.33
2016-11-02T01:00:50.824Z,978.34
2016-11-02T01:01:59.521Z,978.33
2016-11-02T01:03:08.214Z,978.34
2016-11-02T01:04:16.930Z,978.33
2016-11-02T01:05:25.636Z,978.36
2016-11-02T01:06:34.339Z,978.31
2016-11-02T01:07:43.034Z,978.37
2016-11-02T01:08:51.739Z,978.32
2016-11-02T01:10:00.436Z,978.38
2016-11-02T01:11:09.177Z,978.39
2016-11-02T01:12:17.875Z,978.35
2016-11-02T01:13:26.602Z,978.35
2016-11-02T01:14:35.296Z,978.36
2016-11-02T01:15:43.990Z,978.43
2016-11-02T01:16:52.685Z,978.41
2016-11-02T01:18:01.378Z,978.4
2016-11-02T01:19:10.076Z,978.43
2016-11-02T01:20:18.772Z,978.36
2016-11-02T01:21:27.472Z,978.43
2016-11-02T01:22:36.163Z,978.5
2016-11-02T01:23:45.173Z,978.42
2016-11-02T01:24:53.879Z,978.47
2016-11-02T01:26:02.574Z,978.42
2016-11-02T01:27:11.277Z,978.44
2016-11-02T01:28:20.006Z,978.5
2016-11-02T01:29:28.703Z,978.4
2016-11-02T01:30:37.400Z,978.51
2016-11-02T01:31:46.096Z,978.5
2016-11-02T01:32:54.793Z,978.48
2016-11-02T01:34:03.487Z,978.55
2016-11-02T01:35:12.188Z,978.53
2016-11-02T01:36:20.895Z,978.57
2016-11-02T01:37:29.587Z,978.58
2016-11-02T01:38:38.284Z,978.66
2016-11-02T01:39:46.983Z,978.6
2016-11-02T01:40:55.681Z,978.62
2016-11-02T01:42:04.410Z,978.65
2016-11-02T01:43:13.105Z,978.68
2016-11-02T01:44:22.116Z,978.62
2016-11-02T01:45:30.817Z,978.71
2016-11-02T01:46:39.512Z,978.73
2016-11-02T01:47:48.207Z,978.72
2016-11-02T01:48:56.921Z,978.72
2016-11-02T01:50:05.623Z,978.73
2016-11-02T01:51:14.314Z,978.73
2016-11-02T01:52:23.007Z,978.68
2016-11-02T01:53:31.705Z,978.73
2016-11-02T01:54:40.399Z,978.65
2016-11-02T01:55:49.091Z,978.71
2016-11-02T01:56:57.778Z,978.71
2016-11-02T01:58:06.476Z,978.7
2016-11-02T01:59:15.168Z,978.71
2016-11-02T02:00:23.859Z,978.78
2016-11-02T02:01:32.550Z,978.78
2016-11-02T02:02:41.251Z,978.69
2016-11-02T02:03:50.293Z,978.77
2016-11-02T02:04:59.018Z,978.78
2016-11-02T02:06:07.711Z,978.73
2016-11-02T02:07:16.400Z,978.69
2016-11-02T02:08:25.092Z,978.66
2016-11-02T02:09:33.784Z,978.73
2016-11-02T02:10:42.475Z,978.69
2016-11-02T02:11:51.169Z,978.73
2016-11-02T02:12:59.860Z,978.72
2016-11-02T02:14:08.589Z,978.7
2016-11-02T02:15:17.281Z,978.62
2016-11-02T02:16:25.969Z,978.71
2016-11-02T02:17:34.657Z,978.74
2016-11-02T02:18:43.349Z,978.65
2016-11-02T02:19:52.042Z,978.57
2016-11-02T02:21:00.736Z,978.75
2016-11-02T02:22:09.426Z,978.71
2016-11-02T02:23:18.116Z,978.74
2016-11-02T02:24:26.807Z,978.75
2016-11-02T02:25:35.498Z,978.69
2016-11-02T02:26:44.191Z,978.72
2016-11-02T02:27:52.890Z,978.7
2016-11-02T02:29:01.594Z,978.79
2016-11-02T02:30:10.291Z,978.77
2016-11-02T02:31:19.025Z,978.79
2016-11-02T02:32:27.745Z,978.75
2016-11-02T02:33:36.446Z,978.8
2016-11-02T02:34:45.140Z,978.78
2016-11-02T02:35:53.841Z,978.73
2016-11-02T02:37:02.534Z,978.8
2016-11-02T02:38:11.277Z,978.78
2016-11-02T02:39:19.972Z,978.87
2016-11-02T02:40:28.669Z,978.8
2016-11-02T02:41:37.367Z,978.8
2016-11-02T02:42:46.072Z,978.8
2016-11-02T02:43:54.773Z,978.81
2016-11-02T02:45:03.469Z,978.89
2016-11-02T02:46:12.207Z,978.81
2016-11-02T02:47:20.906Z,978.75
2016-11-02T02:48:29.604Z,978.79
2016-11-02T02:49:38.304Z,978.87
2016-11-02T02:50:47.003Z,978.77
2016-11-02T02:51:55.702Z,978.76
2016-11-02T02:53:04.405Z,978.8
2016-11-02T02:54:13.101Z,978.78
2016-11-02T02:55:21.794Z,978.69
2016-11-02T02:56:30.492Z,978.77
2016-11-02T02:57:39.184Z,978.86
2016-11-02T02:58:47.886Z,978.87
2016-11-02T02:59:56.585Z,978.89
2016-11-02T03:01:05.281Z,978.93
2016-11-02T03:02:14.292Z,978.92
2016-11-02T03:03:22.989Z,978.96
2016-11-02T03:04:31.690Z,979
2016-11-02T03:05:40.385Z,978.96
2016-11-02T03:06:49.075Z,978.97
2016-11-02T03:07:57.782Z,978.91
2016-11-02T03:09:06.481Z,978.85
2016-11-02T03:10:15.182Z,978.92
2016-11-02T03:11:23.905Z,978.93
2016-11-02T03:12:32.623Z,979
2016-11-02T03:13:41.372Z,978.97
2016-11-02T03:14:50.067Z,979
2016-11-02T03:15:58.760Z,978.97
2016-11-02T03:17:07.461Z,978.96
2016-11-02T03:18:16.152Z,978.92
2016-11-02T03:19:24.845Z,978.97
2016-11-02T03:20:33.546Z,978.96
2016-11-02T03:21:42.239Z,978.93
2016-11-02T03:22:50.940Z,978.98
2016-11-02T03:23:59.630Z,978.98
2016-11-02T03:25:08.642Z,979.01
2016-11-02T03:26:17.333Z,979.03
2016-11-02T03:27:26.057Z,978.96
2016-11-02T03:28:34.754Z,978.98
2016-11-02T03:29:43.483Z,978.98
2016-11-02T03:30:52.223Z,979.11
2016-11-02T03:32:00.935Z,979.1
2016-11-02T03:33:09.630Z,979.18
2016-11-02T03:34:18.637Z,979.17
2016-11-02T03:35:27.334Z,979.13
2016-11-02T03:36:36.036Z,979.13
2016-11-02T03:37:44.734Z,979.14
2016-11-02T03:38:53.427Z,979.09
2016-11-02T03:40:02.160Z,979.12
2016-11-02T03:41:11.180Z,979.08
2016-11-02T03:42:19.871Z,979.12
2016-11-02T03:43:28.567Z,979.1
2016-11-02T03:44:37.268Z,979.08
2016-11-02T03:45:45.962Z,979.14
2016-11-02T03:46:54.664Z,979.13
2016-11-02T03:48:03.357Z,979.14
2016-11-02T03:49:12.052Z,979.12
2016-11-02T03:50:20.749Z,979.13
2016-11-02T03:51:29.445Z,979.1
2016-11-02T03:52:38.147Z,979.15
2016-11-02T03:53:46.853Z,979.09
2016-11-02T03:54:55.558Z,979.16
2016-11-02T03:56:04.252Z,979.12
2016-11-02T03:57:12.957Z,979.13
2016-11-02T03:58:21.660Z,979.13
2016-11-02T03:59:30.368Z,979.11
2016-11-02T04:00:39.067Z,979.17
2016-11-02T04:01:47.763Z,979.09
2016-11-02T04:02:56.466Z,979.18
2016-11-02T04:04:05.213Z,979.17
2016-11-02T04:05:13.900Z,979.18
2016-11-02T04:06:22.594Z,979.15
2016-11-02T04:07:31.293Z,979.24
2016-11-02T04:08:40.020Z,979.19
2016-11-02T04:09:48.712Z,979.31
2016-11-02T04:10:57.405Z,979.2
2016-11-02T04:12:06.449Z,979.15
2016-11-02T04:13:15.158Z,979.22
2016-11-02T04:14:23.850Z,979.29
2016-11-02T04:15:32.551Z,979.34
2016-11-02T04:16:41.260Z,979.35
2016-11-02T04:17:49.952Z,979.28
2016-11-02T04:18:58.650Z,979.33
2016-11-02T04:20:07.343Z,979.38
2016-11-02T04:21:16.069Z,979.38
2016-11-02T04:22:24.764Z,979.31
2016-11-02T04:23:33.467Z,979.43
2016-11-02T04:24:42.165Z,979.4
2016-11-02T04:25:50.861Z,979.44
2016-11-02T04:26:59.563Z,979.48
2016-11-02T04:28:08.261Z,979.5
2016-11-02T04:29:16.956Z,979.45
2016-11-02T04:30:25.652Z,979.48
2016-11-02T04:31:34.341Z,979.48
2016-11-02T04:32:43.032Z,979.47
2016-11-02T04:33:51.724Z,979.47
2016-11-02T04:35:00.424Z,979.51
2016-11-02T04:36:09.121Z,979.48
2016-11-02T04:37:17.817Z,979.54
2016-11-02T04:38:26.511Z,979.51
2016-11-02T04:39:35.217Z,979.5
2016-11-02T04:40:43.911Z,979.58
2016-11-02T04:41:52.609Z,979.58
2016-11-02T04:43:01.304Z,979.63
2016-11-02T04:44:09.997Z,979.61
2016-11-02T04:45:18.735Z,979.62
2016-11-02T04:46:27.434Z,979.63
2016-11-02T04:47:36.134Z,979.64
2016-11-02T04:48:44.869Z,979.65
2016-11-02T04:49:53.563Z,979.65
2016-11-02T04:51:02.256Z,979.69
2016-11-02T04:52:10.984Z,979.7
2016-11-02T04:53:19.685Z,979.69
2016-11-02T04:54:28.379Z,979.7
2016-11-02T04:55:37.076Z,979.7
2016-11-02T04:56:45.770Z,979.75
2016-11-02T04:57:54.467Z,979.7
2016-11-02T04:59:03.161Z,979.72
2016-11-02T05:00:11.853Z,979.73
2016-11-02T05:01:20.550Z,979.76
2016-11-02T05:02:29.284Z,979.71
2016-11-02T05:03:37.981Z,979.79
2016-11-02T05:04:46.679Z,979.75
2016-11-02T05:05:55.375Z,979.79
2016-11-02T05:07:04.112Z,979.82
2016-11-02T05:08:12.811Z,979.85
2016-11-02T05:09:21.503Z,979.93
2016-11-02T05:10:30.240Z,979.91
2016-11-02T05:11:38.936Z,979.89
2016-11-02T05:12:47.628Z,979.94
2016-11-02T05:13:56.317Z,979.88
2016-11-02T05:15:05.012Z,979.96
2016-11-02T05:16:13.708Z,979.93
2016-11-02T05:17:22.406Z,979.89
2016-11-02T05:18:31.098Z,979.89
2016-11-02T05:19:39.817Z,979.92
2016-11-02T05:20:48.513Z,979.98
2016-11-02T05:21:57.207Z,979.97
2016-11-02T05:23:05.902Z,979.96
2016-11-02T05:24:14.626Z,979.98
2016-11-02T05:25:23.321Z,979.99
2016-11-02T05:26:32.067Z,980.05
2016-11-02T05:27:40.824Z,980.1
2016-11-02T05:28:49.520Z,980.06
2016-11-02T05:29:58.215Z,980.04
2016-11-02T05:31:06.917Z,980.09
2016-11-02T05:32:15.611Z,980.1
2016-11-02T05:33:24.304Z,980.11
2016-11-02T05:34:33.047Z,980.12
2016-11-02T05:35:41.743Z,980.08
2016-11-02T05:36:50.437Z,980.11
2016-11-02T05:37:59.128Z,980.08
2016-11-02T05:39:07.830Z,980.08
2016-11-02T05:40:16.560Z,980.03
2016-11-02T05:41:25.260Z,980.08
2016-11-02T05:42:33.954Z,980.13
2016-11-02T05:43:42.650Z,980.09
2016-11-02T05:44:51.669Z,980.09
2016-11-02T05:46:00.364Z,980.17
2016-11-02T05:47:09.061Z,980.18
2016-11-02T05:48:17.757Z,980.11
2016-11-02T05:49:26.455Z,980.18
2016-11-02T05:50:35.151Z,980.14
2016-11-02T05:51:43.851Z,980.24
2016-11-02T05:52:52.548Z,980.3
2016-11-02T05:54:01.246Z,980.31
2016-11-02T05:55:09.949Z,980.36
2016-11-02T05:56:18.644Z,980.35
2016-11-02T05:57:27.342Z,980.36
2016-11-02T05:58:36.350Z,980.33
2016-11-02T05:59:45.369Z,980.34
2016-11-02T06:00:54.066Z,980.35
2016-11-02T06:02:02.769Z,980.42
2016-11-02T06:03:11.469Z,980.45
2016-11-02T06:04:20.546Z,980.45
2016-11-02T06:05:29.246Z,980.48
2016-11-02T06:06:37.940Z,980.48
2016-11-02T06:07:46.637Z,980.46
2016-11-02T06:08:55.337Z,980.47
2016-11-02T06:10:04.033Z,980.52
2016-11-02T06:11:12.727Z,980.43
2016-11-02T06:12:21.423Z,980.44
2016-11-02T06:13:30.119Z,980.44
2016-11-02T06:14:38.842Z,980.53
2016-11-02T06:15:47.537Z,980.5
2016-11-02T06:16:56.239Z,980.56
2016-11-02T06:18:04.973Z,980.59
2016-11-02T06:19:13.665Z,980.56
2016-11-02T06:20:22.360Z,980.59
2016-11-02T06:21:31.055Z,980.6
2016-11-02T06:22:39.786Z,980.67
2016-11-02T06:23:48.477Z,980.68
2016-11-02T06:24:57.168Z,980.69
2016-11-02T06:26:05.865Z,980.69
2016-11-02T06:27:14.595Z,980.73
2016-11-02T06:28:23.327Z,980.75
2016-11-02T06:29:32.019Z,980.79
2016-11-02T06:30:40.717Z,980.8
2016-11-02T06:31:49.421Z,980.84
2016-11-02T06:32:58.117Z,980.81
2016-11-02T06:34:06.814Z,980.86
2016-11-02T06:35:15.507Z,980.82
2016-11-02T06:36:24.203Z,980.87
2016-11-02T06:37:32.912Z,980.85
2016-11-02T06:38:41.650Z,980.86
2016-11-02T06:39:50.380Z,980.87
2016-11-02T06:40:59.081Z,980.9
2016-11-02T06:42:07.784Z,980.93
2016-11-02T06:43:16.480Z,980.92
2016-11-02T06:44:25.177Z,980.9
2016-11-02T06:45:33.867Z,980.88
2016-11-02T06:46:42.597Z,980.94
2016-11-02T06:47:51.604Z,980.96
2016-11-02T06:49:00.622Z,980.79
2016-11-02T06:50:09.328Z,980.91
2016-11-02T06:51:18.024Z,980.98
2016-11-02T06:52:26.719Z,980.93
2016-11-02T06:53:35.417Z,980.96
2016-11-02T06:54:44.145Z,981.01
2016-11-02T06:55:52.839Z,980.96
2016-11-02T06:57:01.586Z,981.01
2016-11-02T06:58:10.278Z,981.02
2016-11-02T06:59:19.048Z,981.08
2016-11-02T07:00:27.772Z,980.97
2016-11-02T07:01:36.475Z,981.01
2016-11-02T07:02:45.483Z,981.05
2016-11-02T07:03:54.217Z,981.07
2016-11-02T07:05:02.916Z,981.05
2016-11-02T07:06:11.636Z,981.1
2016-11-02T07:07:20.646Z,981.07
2016-11-02T07:08:29.343Z,981.12
2016-11-02T07:09:38.034Z,981.09
2016-11-02T07:10:47.050Z,981.06
2016-11-02T07:11:55.746Z,980.99
2016-11-02T07:13:04.441Z,981.07
2016-11-02T07:14:13.140Z,981.1
2016-11-02T07:15:21.839Z,981.06
2016-11-02T07:16:30.566Z,981
2016-11-02T07:17:39.257Z,981.09
2016-11-02T07:18:47.950Z,981.11
2016-11-02T07:19:56.647Z,981.13
2016-11-02T07:21:05.340Z,981.17
2016-11-02T07:22:14.037Z,981.15
2016-11-02T07:23:23.053Z,981.23
2016-11-02T07:24:31.798Z,981.25
2016-11-02T07:25:40.497Z,981.3
2016-11-02T07:26:49.193Z,981.2
2016-11-02T07:27:57.888Z,981.11
2016-11-02T07:29:06.852Z,981.25
2016-11-02T07:30:15.545Z,981.32
2016-11-02T07:31:24.242Z,981.35
2016-11-02T07:32:32.932Z,981.35
2016-11-02T07:33:41.627Z,981.42
2016-11-02T07:34:50.364Z,981.4
2016-11-02T07:35:59.066Z,981.39
2016-11-02T07:37:07.766Z,981.38
2016-11-02T07:38:16.462Z,981.4
2016-11-02T07:39:25.158Z,981.39
2016-11-02T07:40:33.857Z,981.34
2016-11-02T07:41:42.556Z,981.38
2016-11-02T07:42:51.247Z,981.46
2016-11-02T07:43:59.944Z,981.52
2016-11-02T07:45:08.656Z,981.48
2016-11-02T07:46:17.346Z,981.48
2016-11-02T07:47:26.037Z,981.5
2016-11-02T07:48:34.841Z,981.53
2016-11-02T07:49:43.545Z,981.55
2016-11-02T07:50:52.275Z,981.59
2016-11-02T07:52:00.968Z,981.54
2016-11-02T07:53:09.993Z,981.6
2016-11-02T07:54:18.696Z,981.63
2016-11-02T07:55:27.389Z,981.67
2016-11-02T07:56:36.089Z,981.68
2016-11-02T07:57:44.784Z,981.63
2016-11-02T07:58:53.511Z,981.7
2016-11-02T08:00:02.207Z,981.71
2016-11-02T08:01:10.904Z,981.7
2016-11-02T08:02:19.594Z,981.77
2016-11-02T08:03:28.288Z,981.57
2016-11-02T08:04:36.986Z,981.74
2016-11-02T08:05:46.020Z,981.71
2016-11-02T08:06:54.718Z,981.79
2016-11-02T08:08:03.417Z,981.79
2016-11-02T08:09:12.113Z,981.82
2016-11-02T08:10:20.820Z,981.8
2016-11-02T08:11:29.513Z,981.79
2016-11-02T08:12:38.212Z,981.8
2016-11-02T08:13:46.910Z,981.85
2016-11-02T08:14:55.613Z,981.86
2016-11-02T08:16:04.324Z,981.82
2016-11-02T08:17:13.023Z,981.85
2016-11-02T08:18:21.723Z,981.88
2016-11-02T08:19:30.416Z,981.88
2016-11-02T08:20:39.107Z,981.9
2016-11-02T08:21:47.802Z,981.98
2016-11-02T08:22:56.501Z,981.93
2016-11-02T08:24:05.514Z,981.94
2016-11-02T08:25:14.215Z,981.98
2016-11-02T08:26:22.910Z,982
2016-11-02T08:27:31.635Z,981.94
2016-11-02T08:28:40.373Z,982.02
2016-11-02T08:29:49.064Z,982.07
2016-11-02T08:30:57.762Z,982.07
2016-11-02T08:32:06.490Z,982.1
2016-11-02T08:33:15.201Z,981.96
2016-11-02T08:34:23.928Z,982.07
2016-11-02T08:35:32.627Z,982.11
2016-11-02T08:36:41.395Z,982.07
2016-11-02T08:37:50.128Z,982.1
2016-11-02T08:38:58.829Z,982.1
2016-11-02T08:40:07.524Z,982.05
2016-11-02T08:41:16.215Z,982.09
2016-11-02T08:42:24.920Z,982.04
2016-11-02T08:43:33.616Z,982.15
2016-11-02T08:44:42.355Z,982.08
2016-11-02T08:45:51.049Z,982.04
2016-11-02T08:46:59.780Z,982.04
2016-11-02T08:48:08.470Z,982.13
2016-11-02T08:49:17.170Z,982.13
2016-11-02T08:50:25.865Z,982.16
2016-11-02T08:51:34.568Z,982.22
2016-11-02T08:52:43.267Z,982.2
2016-11-02T08:53:51.964Z,982.25
2016-11-02T08:55:00.660Z,982.24
2016-11-02T08:56:09.357Z,982.3
2016-11-02T08:57:18.053Z,982.29
2016-11-02T08:58:26.749Z,982.32
2016-11-02T08:59:35.463Z,982.37
2016-11-02T09:00:44.164Z,982.36
2016-11-02T09:01:52.860Z,982.28
2016-11-02T09:03:01.555Z,982.29
2016-11-02T09:04:10.557Z,982.28
2016-11-02T09:05:19.255Z,982.29
2016-11-02T09:06:27.961Z,982.34
2016-11-02T09:07:36.653Z,982.32
2016-11-02T09:08:45.351Z,982.3
2016-11-02T09:09:54.046Z,982.32
2016-11-02T09:11:02.743Z,982.36
2016-11-02T09:12:11.435Z,982.35
2016-11-02T09:13:20.133Z,982.36
2016-11-02T09:14:28.824Z,982.41
2016-11-02T09:15:37.560Z,982.38
2016-11-02T09:16:46.254Z,982.37
2016-11-02T09:17:54.994Z,982.36
2016-11-02T09:19:03.693Z,982.43
2016-11-02T09:20:12.387Z,982.39
2016-11-02T09:21:21.085Z,982.49
2016-11-02T09:22:29.779Z,982.46
2016-11-02T09:23:38.471Z,982.48
2016-11-02T09:24:47.163Z,982.47
2016-11-02T09:25:55.864Z,982.41
2016-11-02T09:27:04.565Z,982.4
2016-11-02T09:28:13.261Z,982.51
2016-11-02T09:29:21.959Z,982.42
2016-11-02T09:30:30.652Z,982.49
2016-11-02T09:31:39.347Z,982.6
2016-11-02T09:32:48.049Z,982.64
2016-11-02T09:33:56.784Z,982.51
2016-11-02T09:35:05.484Z,982.64
2016-11-02T09:36:14.182Z,982.56
2016-11-02T09:37:22.875Z,982.68
2016-11-02T09:38:31.568Z,982.67
2016-11-02T09:39:40.260Z,982.63
2016-11-02T09:40:48.956Z,982.67
2016-11-02T09:41:57.660Z,982.73
2016-11-02T09:43:06.505Z,982.67
2016-11-02T09:44:15.199Z,982.64
2016-11-02T09:45:23.898Z,982.79
2016-11-02T09:46:32.592Z,982.62
2016-11-02T09:47:41.294Z,982.74
2016-11-02T09:48:50.287Z,982.72
2016-11-02T09:49:58.981Z,982.73
2016-11-02T09:51:07.723Z,982.66
2016-11-02T09:52:16.426Z,982.79
2016-11-02T09:53:25.434Z,982.79
2016-11-02T09:54:34.177Z,982.79
2016-11-02T09:55:42.878Z,982.76
2016-11-02T09:56:51.579Z,982.82
2016-11-02T09:58:00.272Z,982.72
2016-11-02T09:59:08.981Z,982.74
2016-11-02T10:00:17.684Z,982.73
2016-11-02T10:01:26.387Z,982.76
2016-11-02T10:02:35.082Z,982.76
2016-11-02T10:03:43.782Z,982.76
2016-11-02T10:04:52.795Z,982.79
2016-11-02T10:06:01.495Z,982.79
2016-11-02T10:07:10.203Z,982.8
2016-11-02T10:08:18.896Z,982.76
2016-11-02T10:09:27.591Z,982.73
2016-11-02T10:10:36.668Z,982.74
2016-11-02T10:11:45.495Z,982.76
2016-11-02T10:12:54.742Z,982.8
2016-11-02T10:14:03.443Z,982.8
2016-11-02T10:15:12.137Z,982.85
2016-11-02T10:16:20.841Z,982.81
2016-11-02T10:17:29.538Z,982.86
2016-11-02T10:18:38.834Z,982.93
2016-11-02T10:19:47.524Z,982.93
2016-11-02T10:20:56.230Z,982.97
2016-11-02T10:22:04.968Z,983.04
2016-11-02T10:23:13.667Z,983.02
2016-11-02T10:24:22.361Z,983.11
2016-11-02T10:25:31.057Z,983.09
2016-11-02T10:26:39.759Z,983.09
2016-11-02T10:27:48.456Z,983.01
2016-11-02T10:28:57.149Z,983.11
2016-11-02T10:30:05.847Z,983.05
2016-11-02T10:31:14.543Z,983.15
2016-11-02T10:32:23.554Z,983.12
2016-11-02T10:33:32.260Z,983.06
2016-11-02T10:34:40.953Z,983.06
2016-11-02T10:35:49.652Z,983.06
2016-11-02T10:36:58.350Z,983
2016-11-02T10:38:07.052Z,983.09
2016-11-02T10:39:15.750Z,983.1
2016-11-02T10:40:24.445Z,983.01
2016-11-02T10:41:33.142Z,983.08
2016-11-02T10:42:41.848Z,983.12
2016-11-02T10:43:50.546Z,983.1
2016-11-02T10:44:59.237Z,983.07
2016-11-02T10:46:08.249Z,983.07
2016-11-02T10:47:16.944Z,983.12
2016-11-02T10:48:25.635Z,983.1
2016-11-02T10:49:34.324Z,983.14
2016-11-02T10:50:43.025Z,983.18
2016-11-02T10:51:51.726Z,983.16
2016-11-02T10:53:00.431Z,983.14
2016-11-02T10:54:09.127Z,983.11
2016-11-02T10:55:17.830Z,983.12
2016-11-02T10:56:26.530Z,983.12
2016-11-02T10:57:35.241Z,983.17
2016-11-02T10:58:43.939Z,983.18
2016-11-02T10:59:52.636Z,983.16
2016-11-02T11:01:01.328Z,983.25
2016-11-02T11:02:10.029Z,983.27
2016-11-02T11:03:18.754Z,983.25
2016-11-02T11:04:27.767Z,983.27
2016-11-02T11:05:36.463Z,983.16
2016-11-02T11:06:45.156Z,983.24
2016-11-02T11:07:53.847Z,983.1
2016-11-02T11:09:02.537Z,983.2
2016-11-02T11:10:11.235Z,983.21
2016-11-02T11:11:19.930Z,983.22
2016-11-02T11:12:28.621Z,983.31
2016-11-02T11:13:37.313Z,983.32
2016-11-02T11:14:46.009Z,983.4
2016-11-02T11:15:54.710Z,983.37
2016-11-02T11:17:03.412Z,983.38
2016-11-02T11:18:12.109Z,983.32
2016-11-02T11:19:20.818Z,983.33
2016-11-02T11:20:29.514Z,983.32
2016-11-02T11:21:38.210Z,983.34
2016-11-02T11:22:46.907Z,983.26
2016-11-02T11:23:55.615Z,983.25
2016-11-02T11:25:04.311Z,983.23
2016-11-02T11:26:13.014Z,983.26
2016-11-02T11:27:21.710Z,983.28
2016-11-02T11:28:30.411Z,983.23
2016-11-02T11:29:39.169Z,983.11
2016-11-02T11:30:47.877Z,983.11
2016-11-02T11:31:56.584Z,983.15
2016-11-02T11:33:05.599Z,983.24
2016-11-02T11:34:14.309Z,983.21
2016-11-02T11:35:23.011Z,983.06
2016-11-02T11:36:31.713Z,983.07
2016-11-02T11:37:40.415Z,983.07
2016-11-02T11:38:49.117Z,983.13
2016-11-02T11:39:57.816Z,983.15
2016-11-02T11:41:06.521Z,983.24
2016-11-02T11:42:15.219Z,983.3
2016-11-02T11:43:23.917Z,983.29
2016-11-02T11:44:32.619Z,983.27
2016-11-02T11:45:41.629Z,983.24
2016-11-02T11:46:50.326Z,983.42
2016-11-02T11:47:59.025Z,983.46
2016-11-02T11:49:07.728Z,983.46
2016-11-02T11:50:16.436Z,983.37
2016-11-02T11:51:25.143Z,983.4
2016-11-02T11:52:33.852Z,983.42
2016-11-02T11:53:42.555Z,983.31
2016-11-02T11:54:51.291Z,983.31
2016-11-02T11:56:00.024Z,983.21
2016-11-02T11:57:09.042Z,983.48
2016-11-02T11:58:17.743Z,983.3
2016-11-02T11:59:26.444Z,983.3
2016-11-02T12:00:35.149Z,983.27
2016-11-02T12:01:43.884Z,983.3
2016-11-02T12:02:52.633Z,983.26
2016-11-02T12:04:01.333Z,983.22
2016-11-02T12:05:10.047Z,983.14
2016-11-02T12:06:18.802Z,983.18
2016-11-02T12:07:27.503Z,983.32
2016-11-02T12:08:36.222Z,983.24
2016-11-02T12:09:44.922Z,983.3
2016-11-02T12:10:53.624Z,983.26
2016-11-02T12:12:02.354Z,983.25
2016-11-02T12:13:11.057Z,983.22
2016-11-02T12:14:19.754Z,983.34
2016-11-02T12:15:28.454Z,983.34
2016-11-02T12:16:37.151Z,983.4
2016-11-02T12:17:45.852Z,983.32
2016-11-02T12:18:54.551Z,983.28
2016-11-02T12:20:03.282Z,983.3
2016-11-02T12:21:11.988Z,983.29
2016-11-02T12:22:20.687Z,983.26
2016-11-02T12:23:29.383Z,983.21
2016-11-02T12:24:38.080Z,983.22
2016-11-02T12:25:46.781Z,983.27
2016-11-02T12:26:55.530Z,983.31
2016-11-02T12:28:04.240Z,983.29
2016-11-02T12:29:12.939Z,983.35
2016-11-02T12:30:21.674Z,983.3
2016-11-02T12:31:30.380Z,983.33
2016-11-02T12:32:39.109Z,983.27
2016-11-02T12:33:47.812Z,983.37
2016-11-02T12:34:56.509Z,983.4
2016-11-02T12:36:05.208Z,983.29
2016-11-02T12:37:13.902Z,983.22
2016-11-02T12:38:22.601Z,983.26
2016-11-02T12:39:31.298Z,983.35
2016-11-02T12:40:39.998Z,983.34
2016-11-02T12:41:48.694Z,983.32
2016-11-02T12:42:57.388Z,983.35
2016-11-02T12:44:06.081Z,983.34
2016-11-02T12:45:14.783Z,983.31
2016-11-02T12:46:23.481Z,983.29
2016-11-02T12:47:32.177Z,983.32
2016-11-02T12:48:40.881Z,983.33
2016-11-02T12:49:49.587Z,983.43
2016-11-02T12:50:58.283Z,983.4
2016-11-02T12:52:07.015Z,983.42
2016-11-02T12:53:15.767Z,983.43
2016-11-02T12:54:24.463Z,983.49
2016-11-02T12:55:33.167Z,983.49
2016-11-02T12:56:41.859Z,983.48
2016-11-02T12:57:50.555Z,983.49
2016-11-02T12:58:59.259Z,983.49
2016-11-02T13:00:08.271Z,983.49
2016-11-02T13:01:16.977Z,983.51
2016-11-02T13:02:25.671Z,983.54
2016-11-02T13:03:34.366Z,983.55
2016-11-02T13:04:43.060Z,983.54
2016-11-02T13:05:51.752Z,983.56
2016-11-02T13:07:00.454Z,983.58
2016-11-02T13:08:09.146Z,983.52
2016-11-02T13:09:17.840Z,983.6
2016-11-02T13:10:26.568Z,983.61
2016-11-02T13:11:35.262Z,983.67
2016-11-02T13:12:43.953Z,983.53
2016-11-02T13:13:52.649Z,983.68
2016-11-02T13:15:01.345Z,983.64
2016-11-02T13:16:10.041Z,983.67
2016-11-02T13:17:18.788Z,983.7
2016-11-02T13:18:27.512Z,983.68
2016-11-02T13:19:36.211Z,983.66
2016-11-02T13:20:44.904Z,983.66
2016-11-02T13:21:53.596Z,983.66
2016-11-02T13:23:02.301Z,983.71
2016-11-02T13:24:10.995Z,983.71
2016-11-02T13:25:19.693Z,983.76
2016-11-02T13:26:28.387Z,983.83
2016-11-02T13:27:37.084Z,983.82
2016-11-02T13:28:45.779Z,983.85
2016-11-02T13:29:54.520Z,983.86
2016-11-02T13:31:03.217Z,983.8
2016-11-02T13:32:11.915Z,983.84
2016-11-02T13:33:20.673Z,983.86
2016-11-02T13:34:29.373Z,983.83
2016-11-02T13:35:38.073Z,983.89
2016-11-02T13:36:46.769Z,983.79
2016-11-02T13:37:55.465Z,983.75
2016-11-02T13:39:04.163Z,983.77
2016-11-02T13:40:13.539Z,983.8
2016-11-02T13:41:22.249Z,983.9
2016-11-02T13:42:30.944Z,983.85
2016-11-02T13:43:39.668Z,983.88
2016-11-02T13:44:48.377Z,983.86
2016-11-02T13:45:57.080Z,983.81
2016-11-02T13:47:05.777Z,983.81
2016-11-02T13:48:14.471Z,983.84
2016-11-02T13:49:23.175Z,983.87
2016-11-02T13:50:31.871Z,983.86
2016-11-02T13:51:40.578Z,983.9
2016-11-02T13:52:49.285Z,983.93
2016-11-02T13:53:57.990Z,983.98
2016-11-02T13:55:06.691Z,984.03
2016-11-02T13:56:15.424Z,984.02
2016-11-02T13:57:24.155Z,983.93
2016-11-02T13:58:32.851Z,983.91
2016-11-02T13:59:41.872Z,983.92
2016-11-02T14:00:50.604Z,983.93
2016-11-02T14:01:59.304Z,983.9
2016-11-02T14:03:08.319Z,983.87
2016-11-02T14:04:17.024Z,983.91
2016-11-02T14:05:25.743Z,983.93
2016-11-02T14:06:34.460Z,983.9
2016-11-02T14:07:43.159Z,983.81
2016-11-02T14:08:51.852Z,983.87
2016-11-02T14:10:00.542Z,983.88
2016-11-02T14:11:09.236Z,983.87
2016-11-02T14:12:18.260Z,983.9
2016-11-02T14:13:26.990Z,983.95
2016-11-02T14:14:35.688Z,983.93
2016-11-02T14:15:45.127Z,983.9
2016-11-02T14:16:53.827Z,983.89
2016-11-02T14:18:02.526Z,983.9
2016-11-02T14:19:11.221Z,983.93
2016-11-02T14:20:19.917Z,983.9
2016-11-02T14:21:28.610Z,983.96